• Join FlightAware (Why Join?)
  • Login
  • US Flag 
01:40AM EDT


 

Airport Tracker/Info


-or-


 

Live Flight TrackerFlight Track Log ✈ TAM9377 ✈ 02-May-2013 ✈ SBEG / MAO - KMIA

Flight Track Log - Related Links

Times and Time Zones

All times are in EDT time to prevent confusion due to time zone crossing. See the TAM9377 flight status page for this flight to view local times or setup timezone preferences in your user account.

Time Position Orientation Groundspeed Altitude Reporting Facility
EDT Latitude Longitude Course Direction KTS MPH feet Rate Location/Type
08:37AM -1.3679 -61.1353 327° Northwest  Level Estimated
08:38AM -1.2715 -61.1978 327° Northwest  Level Estimated
08:39AM -1.1751 -61.2604 327° Northwest  Level Estimated
08:40AM -1.0787 -61.3230 327° Northwest  Level Estimated
08:41AM -0.9823 -61.3855 327° Northwest  Level Estimated
08:42AM -0.8859 -61.4481 327° Northwest  Level Estimated
08:43AM -0.7893 -61.5092 328° Northwest  Level FlightAware Approximate
08:44AM -0.6927 -61.5703 328° Northwest  Level FlightAware Approximate
08:45AM -0.5961 -61.6314 328° Northwest  Level FlightAware Approximate
08:46AM -0.4995 -61.6925 328° Northwest  Level FlightAware Approximate
08:47AM -0.4029 -61.7536 328° Northwest  Level FlightAware Approximate
08:48AM -0.3063 -61.8147 328° Northwest  Level FlightAware Approximate
08:49AM -0.2096 -61.8758 328° Northwest  Level FlightAware Approximate
08:50AM -0.1130 -61.9369 328° Northwest  Level FlightAware Approximate
08:51AM -0.0164 -61.9980 328° Northwest  Level FlightAware Approximate
08:52AM 0.0802 -62.0591 328° Northwest  Level FlightAware Approximate
08:53AM 0.1768 -62.1202 328° Northwest  Level FlightAware Approximate
08:54AM 0.2734 -62.1813 328° Northwest  Level FlightAware Approximate
08:55AM 0.3700 -62.2424 328° Northwest  Level FlightAware Approximate
08:56AM 0.4666 -62.3035 328° Northwest  Level FlightAware Approximate
08:57AM 0.5632 -62.3646 328° Northwest  Level FlightAware Approximate
08:58AM 0.6598 -62.4258 328° Northwest  Level FlightAware Approximate
08:59AM 0.7564 -62.4869 328° Northwest  Level FlightAware Approximate
09:00AM 0.8530 -62.5480 328° Northwest  Level FlightAware Approximate
09:01AM 0.9496 -62.6091 328° Northwest  Level FlightAware Approximate
09:02AM 1.0462 -62.6702 328° Northwest  Level FlightAware Approximate
09:03AM 1.1428 -62.7313 328° Northwest  Level FlightAware Approximate
09:04AM 1.2394 -62.7925 328° Northwest  Level FlightAware Approximate
09:05AM 1.3360 -62.8536 328° Northwest  Level FlightAware Approximate
09:06AM 1.4326 -62.9147 328° Northwest  Level FlightAware Approximate
09:07AM 1.5292 -62.9759 328° Northwest  Level FlightAware Approximate
09:08AM 1.6258 -63.0370 328° Northwest  Level FlightAware Approximate
09:09AM 1.7224 -63.0982 328° Northwest  Level FlightAware Approximate
09:10AM 1.8190 -63.1593 328° Northwest  Level FlightAware Approximate
09:11AM 1.9155 -63.2205 328° Northwest  Level FlightAware Approximate
09:12AM 2.0121 -63.2817 328° Northwest  Level FlightAware Approximate
09:13AM 2.1087 -63.3428 328° Northwest  Level FlightAware Approximate
09:14AM 2.2053 -63.4040 328° Northwest  Level FlightAware Approximate
09:15AM 2.3019 -63.4652 328° Northwest  Level FlightAware Approximate
09:16AM 2.3984 -63.5265 328° Northwest  Level FlightAware Approximate
09:17AM 2.4950 -63.5877 328° Northwest  Level FlightAware Approximate
09:18AM 2.5916 -63.6489 328° Northwest  Level FlightAware Approximate
09:19AM 2.6881 -63.7101 328° Northwest  Level FlightAware Approximate
09:20AM 2.7847 -63.7714 328° Northwest  Level FlightAware Approximate
09:21AM 2.8812 -63.8326 328° Northwest  Level FlightAware Approximate
09:22AM 2.9778 -63.8939 328° Northwest  Level FlightAware Approximate
09:23AM 3.0744 -63.9551 328° Northwest  Level FlightAware Approximate
09:24AM 3.1709 -64.0164 328° Northwest  Level FlightAware Approximate
09:25AM 3.2674 -64.0777 328° Northwest  Level FlightAware Approximate
09:26AM 3.3640 -64.1390 328° Northwest  Level FlightAware Approximate
09:27AM 3.4605 -64.2003 328° Northwest  Level FlightAware Approximate
09:28AM 3.5570 -64.2617 328° Northwest  Level FlightAware Approximate